createdAt,value
2022-08-12T00:00:02.281Z,978.01
2022-08-12T00:01:02.267Z,978.00
2022-08-12T00:02:05.616Z,977.99
2022-08-12T00:03:02.279Z,977.94
2022-08-12T00:04:02.229Z,977.98
2022-08-12T00:05:02.217Z,977.96
2022-08-12T00:06:05.050Z,977.95
2022-08-12T00:07:02.183Z,977.87
2022-08-12T00:08:02.165Z,977.95
2022-08-12T00:09:02.158Z,977.90
2022-08-12T00:10:02.142Z,977.94
2022-08-12T00:11:09.847Z,977.95
2022-08-12T00:12:03.143Z,977.99
2022-08-12T00:13:02.110Z,977.92
2022-08-12T00:14:02.085Z,977.98
2022-08-12T00:15:02.077Z,977.95
2022-08-12T00:16:02.066Z,977.97
2022-08-12T00:17:02.054Z,977.95
2022-08-12T00:18:02.031Z,977.98
2022-08-12T00:19:02.023Z,977.96
2022-08-12T00:20:02.016Z,977.94
2022-08-12T00:21:01.999Z,977.90
2022-08-12T00:22:01.981Z,978.00
2022-08-12T00:23:01.970Z,978.00
2022-08-12T00:24:01.953Z,977.98
2022-08-12T00:25:01.946Z,977.98
2022-08-12T00:26:22.342Z,978.02
2022-08-12T00:27:01.918Z,977.99
2022-08-12T00:28:01.904Z,977.97
2022-08-12T00:29:01.891Z,978.02
2022-08-12T00:30:01.870Z,977.98
2022-08-12T00:31:01.860Z,978.02
2022-08-12T00:32:01.840Z,977.98
2022-08-12T00:33:02.118Z,978.04
2022-08-12T00:34:01.816Z,977.97
2022-08-12T00:35:01.802Z,978.03
2022-08-12T00:36:02.819Z,977.99
2022-08-12T00:37:13.088Z,977.97
2022-08-12T00:38:02.785Z,977.95
2022-08-12T00:39:01.755Z,978.03
2022-08-12T00:40:01.738Z,978.06
2022-08-12T00:41:01.728Z,978.04
2022-08-12T00:42:01.705Z,978.05
2022-08-12T00:43:01.694Z,977.99
2022-08-12T00:44:01.678Z,978.02
2022-08-12T00:45:01.668Z,978.05
2022-08-12T00:46:01.656Z,978.02
2022-08-12T00:47:01.650Z,978.06
2022-08-12T00:48:01.628Z,978.07
2022-08-12T00:49:01.619Z,978.02
2022-08-12T00:50:01.603Z,977.99
2022-08-12T00:51:01.592Z,977.93
2022-08-12T00:52:01.573Z,978.02
2022-08-12T00:53:01.563Z,978.06
2022-08-12T00:54:01.542Z,978.04
2022-08-12T00:55:01.532Z,978.02
2022-08-12T00:56:01.513Z,977.97
2022-08-12T00:57:01.506Z,978.04
2022-08-12T00:58:01.486Z,978.09
2022-08-12T00:59:01.476Z,978.06
2022-08-12T01:00:01.467Z,978.01
2022-08-12T01:01:01.497Z,978.00
2022-08-12T01:02:12.216Z,977.96
2022-08-12T01:03:02.451Z,978.04
2022-08-12T01:04:01.411Z,978.02
2022-08-12T01:05:01.416Z,977.92
2022-08-12T01:06:01.384Z,977.99
2022-08-12T01:07:01.375Z,977.99
2022-08-12T01:08:01.357Z,978.07
2022-08-12T01:09:01.347Z,978.07
2022-08-12T01:10:01.326Z,978.04
2022-08-12T01:11:01.318Z,978.02
2022-08-12T01:12:01.299Z,978.04
2022-08-12T01:13:18.141Z,978.03
2022-08-12T01:14:02.303Z,978.03
2022-08-12T01:15:01.264Z,978.04
2022-08-12T01:16:01.263Z,977.98
2022-08-12T01:17:01.234Z,978.01
2022-08-12T01:18:01.224Z,978.02
2022-08-12T01:19:01.216Z,977.93
2022-08-12T01:20:01.197Z,977.94
2022-08-12T01:21:01.281Z,977.95
2022-08-12T01:22:01.175Z,977.89
2022-08-12T01:23:01.153Z,977.87
2022-08-12T01:24:28.113Z,977.91
2022-08-12T01:25:02.160Z,977.95
2022-08-12T01:26:01.112Z,977.96
2022-08-12T01:27:01.095Z,977.90
2022-08-12T01:28:01.086Z,977.92
2022-08-12T01:29:01.068Z,977.93
2022-08-12T01:30:01.059Z,977.94
2022-08-12T01:31:01.045Z,977.96
2022-08-12T01:32:01.035Z,978.01
2022-08-12T01:33:01.013Z,978.02
2022-08-12T01:34:01.014Z,978.00
2022-08-12T01:35:00.992Z,977.99
2022-08-12T01:36:08.292Z,978.01
2022-08-12T01:37:00.970Z,977.99
2022-08-12T01:38:00.954Z,978.07
2022-08-12T01:39:00.938Z,978.09
2022-08-12T01:40:35.109Z,978.13
2022-08-12T01:41:01.006Z,978.10
2022-08-12T01:42:00.898Z,978.08
2022-08-12T01:43:00.877Z,978.10
2022-08-12T01:44:00.867Z,978.12
2022-08-12T01:45:00.852Z,978.12
2022-08-12T01:46:00.851Z,978.05
2022-08-12T01:47:00.828Z,978.08
2022-08-12T01:48:00.826Z,978.11
2022-08-12T01:49:00.802Z,978.06
2022-08-12T01:50:00.789Z,977.98
2022-08-12T01:51:01.424Z,978.06
2022-08-12T01:52:15.689Z,978.07
2022-08-12T01:53:01.765Z,978.07
2022-08-12T01:54:00.736Z,978.11
2022-08-12T01:55:00.717Z,978.15
2022-08-12T01:56:00.705Z,978.01
2022-08-12T01:57:00.688Z,978.06
2022-08-12T01:58:01.433Z,978.02
2022-08-12T01:59:00.667Z,977.99
2022-08-12T02:00:00.660Z,977.94
2022-08-12T02:01:00.719Z,977.89
2022-08-12T02:02:00.632Z,977.88
2022-08-12T02:03:00.612Z,977.91
2022-08-12T02:04:00.600Z,977.84
2022-08-12T02:05:00.585Z,977.83
2022-08-12T02:06:00.571Z,977.89
2022-08-12T02:07:00.552Z,977.94
2022-08-12T02:08:00.540Z,977.90
2022-08-12T02:09:00.524Z,977.89
2022-08-12T02:10:00.516Z,977.94
2022-08-12T02:11:00.497Z,977.96
2022-08-12T02:12:04.563Z,977.93
2022-08-12T02:13:00.470Z,977.88
2022-08-12T02:14:00.463Z,977.96
2022-08-12T02:15:00.448Z,977.89
2022-08-12T02:16:00.443Z,977.84
2022-08-12T02:17:00.421Z,977.72
2022-08-12T02:18:00.407Z,977.87
2022-08-12T02:19:00.397Z,977.84
2022-08-12T02:20:00.378Z,977.78
2022-08-12T02:21:00.360Z,977.87
2022-08-12T02:22:00.352Z,977.92
2022-08-12T02:23:00.337Z,977.93
2022-08-12T02:24:00.322Z,977.91
2022-08-12T02:25:00.309Z,977.86
2022-08-12T02:26:00.439Z,977.92
2022-08-12T02:27:00.279Z,977.92
2022-08-12T02:28:00.273Z,977.97
2022-08-12T02:29:00.253Z,977.93
2022-08-12T02:30:00.241Z,978.05
2022-08-12T02:31:00.222Z,978.00
2022-08-12T02:32:00.219Z,978.03
2022-08-12T02:33:00.193Z,977.94
2022-08-12T02:34:00.187Z,977.97
2022-08-12T02:35:00.168Z,978.02
2022-08-12T02:36:00.158Z,977.94
2022-08-12T02:37:00.256Z,977.98
2022-08-12T02:38:00.133Z,977.94
2022-08-12T02:39:00.115Z,977.85
2022-08-12T02:40:00.274Z,977.89
2022-08-12T02:41:00.142Z,977.80
2022-08-12T02:42:00.094Z,977.87
2022-08-12T02:43:00.063Z,977.87
2022-08-12T02:44:00.055Z,977.83
2022-08-12T02:45:00.035Z,977.86
2022-08-12T02:46:00.025Z,977.85
2022-08-12T02:46:59.999Z,977.84
2022-08-12T02:48:01.397Z,977.83
2022-08-12T02:48:59.971Z,977.86
2022-08-12T02:49:59.966Z,977.76
2022-08-12T02:50:59.948Z,977.73
2022-08-12T02:51:59.936Z,977.75
2022-08-12T02:52:59.923Z,977.75
2022-08-12T02:54:04.798Z,977.82
2022-08-12T02:54:59.888Z,977.78
2022-08-12T02:55:59.875Z,977.83
2022-08-12T02:56:59.861Z,977.80
2022-08-12T02:57:59.849Z,977.82
2022-08-12T02:58:59.834Z,977.82
2022-08-12T02:59:59.826Z,977.78
2022-08-12T03:00:59.860Z,977.71
2022-08-12T03:01:59.803Z,977.78
2022-08-12T03:02:59.785Z,977.70
2022-08-12T03:03:59.771Z,977.77
2022-08-12T03:04:59.755Z,977.73
2022-08-12T03:05:59.746Z,977.65
2022-08-12T03:06:59.734Z,977.79
2022-08-12T03:08:00.392Z,977.75
2022-08-12T03:08:59.701Z,977.72
2022-08-12T03:10:05.522Z,977.68
2022-08-12T03:10:59.670Z,977.81
2022-08-12T03:11:59.661Z,977.76
2022-08-12T03:12:59.641Z,977.82
2022-08-12T03:13:59.631Z,977.79
2022-08-12T03:14:59.617Z,977.77
2022-08-12T03:15:59.614Z,977.75
2022-08-12T03:16:59.587Z,977.71
2022-08-12T03:18:24.049Z,977.71
2022-08-12T03:19:00.607Z,977.71
2022-08-12T03:20:10.337Z,977.69
2022-08-12T03:20:59.539Z,977.69
2022-08-12T03:22:08.749Z,977.67
2022-08-12T03:22:59.506Z,977.72
2022-08-12T03:23:59.504Z,977.74
2022-08-12T03:24:59.481Z,977.79
2022-08-12T03:25:59.533Z,977.81
2022-08-12T03:27:00.198Z,977.78
2022-08-12T03:27:59.448Z,977.80
2022-08-12T03:28:59.432Z,977.79
2022-08-12T03:29:59.418Z,977.76
2022-08-12T03:30:59.408Z,977.74
2022-08-12T03:31:59.391Z,977.73
2022-08-12T03:32:59.381Z,977.73
2022-08-12T03:34:02.282Z,977.71
2022-08-12T03:34:59.352Z,977.74
2022-08-12T03:35:59.336Z,977.71
2022-08-12T03:36:59.327Z,977.71
2022-08-12T03:37:59.308Z,977.76
2022-08-12T03:38:59.301Z,977.68
2022-08-12T03:39:59.308Z,977.71
2022-08-12T03:40:59.278Z,977.73
2022-08-12T03:41:59.257Z,977.73
2022-08-12T03:42:59.244Z,977.74
2022-08-12T03:43:59.233Z,977.76
2022-08-12T03:44:59.219Z,977.71
2022-08-12T03:45:59.213Z,977.71
2022-08-12T03:46:59.186Z,977.67
2022-08-12T03:47:59.182Z,977.72
2022-08-12T03:48:59.161Z,977.71
2022-08-12T03:49:59.158Z,977.70
2022-08-12T03:50:59.134Z,977.70
2022-08-12T03:51:59.131Z,977.72
2022-08-12T03:52:59.107Z,977.67
2022-08-12T03:53:59.098Z,977.64
2022-08-12T03:54:59.084Z,977.68
2022-08-12T03:55:59.071Z,977.74
2022-08-12T03:56:59.061Z,977.74
2022-08-12T03:57:59.049Z,977.74
2022-08-12T03:58:59.790Z,977.74
2022-08-12T03:59:59.024Z,977.79
2022-08-12T04:00:59.063Z,977.76
2022-08-12T04:01:59.012Z,977.74
2022-08-12T04:02:58.977Z,977.77
2022-08-12T04:03:58.967Z,977.82
2022-08-12T04:04:58.947Z,977.83
2022-08-12T04:05:58.937Z,977.86
2022-08-12T04:06:58.925Z,977.89
2022-08-12T04:07:58.914Z,977.90
2022-08-12T04:08:58.898Z,977.81
2022-08-12T04:09:58.883Z,977.86
2022-08-12T04:10:58.870Z,977.86
2022-08-12T04:11:58.861Z,977.88
2022-08-12T04:12:58.846Z,977.89
2022-08-12T04:13:58.835Z,977.92
2022-08-12T04:14:58.814Z,977.96
2022-08-12T04:15:58.807Z,977.93
2022-08-12T04:16:58.789Z,977.86
2022-08-12T04:18:07.661Z,977.89
2022-08-12T04:18:58.758Z,977.82
2022-08-12T04:19:58.760Z,977.90
2022-08-12T04:20:58.732Z,977.90
2022-08-12T04:22:03.055Z,977.92
2022-08-12T04:22:58.706Z,977.90
2022-08-12T04:23:58.700Z,977.82
2022-08-12T04:24:58.677Z,977.87
2022-08-12T04:25:58.667Z,977.86
2022-08-12T04:26:58.656Z,977.83
2022-08-12T04:27:58.639Z,977.84
2022-08-12T04:28:59.652Z,977.83
2022-08-12T04:30:30.252Z,977.88
2022-08-12T04:30:59.626Z,977.77
2022-08-12T04:31:58.591Z,977.90
2022-08-12T04:32:58.567Z,977.88
2022-08-12T04:33:58.564Z,977.87
2022-08-12T04:34:58.543Z,977.83
2022-08-12T04:35:58.535Z,977.80
2022-08-12T04:36:58.514Z,977.82
2022-08-12T04:38:00.644Z,977.80
2022-08-12T04:38:59.739Z,977.76
2022-08-12T04:39:58.557Z,977.80
2022-08-12T04:40:58.462Z,977.79
2022-08-12T04:41:58.895Z,977.78
2022-08-12T04:42:58.435Z,977.79
2022-08-12T04:44:01.869Z,977.80
2022-08-12T04:44:58.409Z,977.84
2022-08-12T04:45:58.398Z,977.83
2022-08-12T04:46:58.388Z,977.89
2022-08-12T04:47:58.373Z,977.88
2022-08-12T04:48:58.362Z,977.76
2022-08-12T04:49:58.351Z,977.81
2022-08-12T04:50:58.333Z,977.76
2022-08-12T04:51:59.542Z,977.77
2022-08-12T04:52:58.304Z,977.69
2022-08-12T04:53:58.291Z,977.79
2022-08-12T04:54:58.280Z,977.81
2022-08-12T04:55:58.262Z,977.73
2022-08-12T04:57:04.846Z,977.74
2022-08-12T04:57:59.263Z,977.71
2022-08-12T04:58:58.223Z,977.73
2022-08-12T04:59:58.217Z,977.78
2022-08-12T05:00:58.194Z,977.68
2022-08-12T05:01:58.231Z,977.65
2022-08-12T05:02:58.272Z,977.72
2022-08-12T05:03:58.158Z,977.75
2022-08-12T05:05:01.027Z,977.73
2022-08-12T05:05:58.137Z,977.73
2022-08-12T05:06:58.114Z,977.72
2022-08-12T05:07:58.105Z,977.73
2022-08-12T05:08:58.091Z,977.79
2022-08-12T05:09:59.714Z,977.77
2022-08-12T05:10:58.064Z,977.79
2022-08-12T05:11:58.061Z,977.79
2022-08-12T05:12:58.039Z,977.76
2022-08-12T05:13:58.027Z,977.78
2022-08-12T05:14:58.010Z,977.73
2022-08-12T05:16:05.097Z,977.78
2022-08-12T05:16:57.985Z,977.77
2022-08-12T05:17:59.997Z,977.76
2022-08-12T05:18:57.954Z,977.75
2022-08-12T05:19:58.155Z,977.81
2022-08-12T05:20:57.928Z,977.77
2022-08-12T05:21:57.921Z,977.83
2022-08-12T05:23:01.083Z,977.86
2022-08-12T05:23:57.894Z,977.84
2022-08-12T05:24:57.874Z,977.86
2022-08-12T05:25:57.874Z,977.86
2022-08-12T05:26:57.844Z,977.88
2022-08-12T05:27:58.978Z,977.90
2022-08-12T05:28:57.819Z,977.89
2022-08-12T05:30:06.894Z,977.89
2022-08-12T05:30:57.801Z,977.87
2022-08-12T05:31:57.784Z,977.93
2022-08-12T05:33:00.016Z,977.86
2022-08-12T05:33:57.751Z,977.98
2022-08-12T05:34:57.737Z,977.94
2022-08-12T05:35:57.723Z,977.98
2022-08-12T05:36:57.713Z,977.97
2022-08-12T05:37:57.696Z,978.04
2022-08-12T05:38:57.683Z,978.06
2022-08-12T05:39:57.746Z,978.03
2022-08-12T05:40:57.657Z,977.99
2022-08-12T05:41:57.656Z,978.01
2022-08-12T05:42:57.632Z,978.09
2022-08-12T05:43:57.617Z,978.09
2022-08-12T05:44:57.624Z,978.12
2022-08-12T05:45:57.589Z,978.01
2022-08-12T05:46:57.588Z,978.11
2022-08-12T05:47:57.560Z,978.09
2022-08-12T05:48:57.553Z,978.06
2022-08-12T05:49:57.661Z,978.04
2022-08-12T05:50:57.563Z,978.11
2022-08-12T05:51:57.501Z,978.00
2022-08-12T05:52:57.492Z,978.10
2022-08-12T05:53:57.536Z,978.03
2022-08-12T05:54:58.064Z,978.02
2022-08-12T05:55:57.518Z,978.02
2022-08-12T05:56:57.540Z,978.07
2022-08-12T05:57:57.540Z,977.97
2022-08-12T05:58:57.540Z,977.97
2022-08-12T05:59:57.576Z,978.01
2022-08-12T06:00:57.512Z,977.98
2022-08-12T06:02:09.314Z,978.02
2022-08-12T06:02:57.488Z,977.94
2022-08-12T06:03:57.412Z,978.00
2022-08-12T06:04:57.387Z,977.96
2022-08-12T06:05:57.434Z,977.94
2022-08-12T06:06:57.359Z,977.92
2022-08-12T06:08:01.677Z,977.98
2022-08-12T06:08:57.401Z,978.00
2022-08-12T06:09:57.437Z,977.95
2022-08-12T06:10:57.316Z,978.03
2022-08-12T06:12:05.780Z,978.03
2022-08-12T06:12:57.349Z,977.97
2022-08-12T06:13:57.361Z,977.96
2022-08-12T06:14:57.339Z,977.99
2022-08-12T06:15:57.315Z,977.95
2022-08-12T06:16:57.319Z,978.00
2022-08-12T06:17:57.243Z,977.93
2022-08-12T06:18:57.217Z,977.97
2022-08-12T06:20:25.895Z,977.90
2022-08-12T06:20:57.212Z,977.90
2022-08-12T06:21:57.233Z,977.89
2022-08-12T06:22:57.229Z,977.92
2022-08-12T06:23:57.115Z,977.89
2022-08-12T06:24:57.126Z,977.88
2022-08-12T06:25:57.214Z,977.93
2022-08-12T06:26:57.115Z,977.92
2022-08-12T06:28:07.472Z,977.88
2022-08-12T06:28:58.139Z,977.90
2022-08-12T06:30:09.490Z,977.88
2022-08-12T06:31:24.241Z,977.97
2022-08-12T06:31:57.045Z,977.89
2022-08-12T06:33:04.375Z,977.89
2022-08-12T06:35:21.665Z,977.95
2022-08-12T06:35:25.222Z,977.86
2022-08-12T06:35:59.093Z,977.87
2022-08-12T06:36:56.946Z,977.85
2022-08-12T06:37:57.674Z,977.86
2022-08-12T06:38:56.874Z,977.86
2022-08-12T06:40:01.537Z,977.81
2022-08-12T06:40:57.867Z,977.82
2022-08-12T06:42:05.154Z,977.79
2022-08-12T06:42:56.820Z,977.86
2022-08-12T06:44:04.462Z,977.77
2022-08-12T06:44:57.819Z,977.76
2022-08-12T06:45:56.785Z,977.77
2022-08-12T06:46:58.427Z,977.84
2022-08-12T06:47:56.759Z,977.84
2022-08-12T06:48:56.752Z,977.78
2022-08-12T06:49:56.732Z,977.76
2022-08-12T06:50:56.721Z,977.80
2022-08-12T06:51:57.315Z,977.86
2022-08-12T06:52:56.696Z,977.82
2022-08-12T06:53:56.680Z,977.79
2022-08-12T06:54:56.662Z,977.84
2022-08-12T06:55:57.865Z,977.86
2022-08-12T06:58:06.177Z,977.76
2022-08-12T06:58:07.943Z,977.78
2022-08-12T06:58:56.615Z,977.83
2022-08-12T06:59:56.595Z,977.90
2022-08-12T07:00:56.628Z,977.86
2022-08-12T07:01:56.572Z,977.80
2022-08-12T07:02:56.565Z,977.83
2022-08-12T07:04:05.160Z,977.84
2022-08-12T07:04:56.536Z,977.74
2022-08-12T07:05:56.515Z,977.81
2022-08-12T07:06:56.508Z,977.77
2022-08-12T07:07:56.494Z,977.77
2022-08-12T07:08:56.478Z,977.77
2022-08-12T07:10:07.415Z,977.79
2022-08-12T07:10:56.463Z,977.68
2022-08-12T07:11:56.439Z,977.76
2022-08-12T07:12:56.428Z,977.77
2022-08-12T07:14:08.531Z,977.72
2022-08-12T07:14:57.445Z,977.77
2022-08-12T07:15:56.392Z,977.79
2022-08-12T07:16:56.377Z,977.74
2022-08-12T07:17:56.362Z,977.83
2022-08-12T07:18:56.350Z,977.81
2022-08-12T07:20:01.950Z,977.79
2022-08-12T07:20:57.344Z,977.85
2022-08-12T07:22:00.264Z,977.81
2022-08-12T07:22:56.297Z,977.81
2022-08-12T07:23:56.279Z,977.91
2022-08-12T07:24:56.272Z,977.84
2022-08-12T07:25:58.401Z,977.82
2022-08-12T07:26:56.255Z,977.74
2022-08-12T07:27:56.231Z,977.92
2022-08-12T07:28:56.221Z,977.79
2022-08-12T07:30:00.036Z,977.78
2022-08-12T07:30:57.214Z,977.84
2022-08-12T07:31:56.183Z,977.83
2022-08-12T07:32:59.910Z,977.79
2022-08-12T07:33:56.146Z,977.80
2022-08-12T07:34:56.137Z,977.74
2022-08-12T07:35:56.120Z,977.81
2022-08-12T07:36:56.107Z,977.70
2022-08-12T07:37:56.099Z,977.74
2022-08-12T07:38:56.085Z,977.78
2022-08-12T07:40:00.238Z,977.79
2022-08-12T07:40:56.054Z,977.76
2022-08-12T07:41:56.040Z,977.63
2022-08-12T07:42:56.034Z,977.73
2022-08-12T07:43:56.014Z,977.68
2022-08-12T07:44:56.148Z,977.70
2022-08-12T07:45:55.988Z,977.72
2022-08-12T07:46:55.983Z,977.64
2022-08-12T07:47:55.959Z,977.74
2022-08-12T07:48:55.963Z,977.66
2022-08-12T07:50:04.614Z,977.72
2022-08-12T07:50:56.958Z,977.63
2022-08-12T07:51:55.909Z,977.58
2022-08-12T07:52:55.908Z,977.65
2022-08-12T07:54:00.126Z,977.68
2022-08-12T07:54:55.888Z,977.64
2022-08-12T07:55:55.857Z,977.75
2022-08-12T07:56:55.852Z,977.63
2022-08-12T07:57:55.849Z,977.66
2022-08-12T07:58:55.821Z,977.51
2022-08-12T07:59:56.279Z,977.63
2022-08-12T08:00:55.796Z,977.55
2022-08-12T08:01:55.841Z,977.58
2022-08-12T08:02:55.772Z,977.55
2022-08-12T08:03:55.757Z,977.56
2022-08-12T08:04:55.746Z,977.47
2022-08-12T08:05:55.733Z,977.40
2022-08-12T08:06:55.721Z,977.48
2022-08-12T08:07:55.727Z,977.49
2022-08-12T08:08:55.702Z,977.51
2022-08-12T08:09:58.613Z,977.45
2022-08-12T08:10:55.673Z,977.53
2022-08-12T08:11:55.652Z,977.45
2022-08-12T08:12:55.645Z,977.52
2022-08-12T08:13:55.637Z,977.50
2022-08-12T08:14:55.622Z,977.50
2022-08-12T08:16:03.981Z,977.48
2022-08-12T08:16:56.621Z,977.44
2022-08-12T08:17:55.581Z,977.52
2022-08-12T08:18:55.575Z,977.53
2022-08-12T08:20:03.894Z,977.49
2022-08-12T08:20:56.707Z,977.47
2022-08-12T08:21:55.529Z,977.40
2022-08-12T08:22:55.527Z,977.36
2022-08-12T08:23:55.840Z,977.46
2022-08-12T08:24:55.498Z,977.43
2022-08-12T08:25:55.481Z,977.46
2022-08-12T08:26:55.475Z,977.37
2022-08-12T08:27:55.452Z,977.39
2022-08-12T08:28:55.446Z,977.36
2022-08-12T08:29:55.433Z,977.33
2022-08-12T08:30:55.417Z,977.33
2022-08-12T08:31:55.406Z,977.41
2022-08-12T08:32:55.394Z,977.35
2022-08-12T08:34:05.497Z,977.37
2022-08-12T08:34:55.475Z,977.29
2022-08-12T08:35:55.359Z,977.38
2022-08-12T08:36:55.344Z,977.29
2022-08-12T08:37:55.334Z,977.35
2022-08-12T08:38:57.962Z,977.35
2022-08-12T08:39:55.369Z,977.37
2022-08-12T08:40:55.296Z,977.40
2022-08-12T08:42:14.186Z,977.35
2022-08-12T08:42:55.276Z,977.17
2022-08-12T08:43:55.259Z,977.26
2022-08-12T08:44:57.981Z,977.20
2022-08-12T08:45:55.237Z,977.26
2022-08-12T08:46:55.226Z,977.27
2022-08-12T08:47:58.407Z,977.28
2022-08-12T08:48:59.363Z,977.32
2022-08-12T08:49:55.191Z,977.25
2022-08-12T08:51:04.455Z,977.29
2022-08-12T08:51:55.168Z,977.25
2022-08-12T08:52:55.155Z,977.22
2022-08-12T08:53:55.146Z,977.26
2022-08-12T08:54:55.132Z,977.25
2022-08-12T08:56:04.627Z,977.24
2022-08-12T08:56:55.111Z,977.17
2022-08-12T08:57:55.096Z,977.18
2022-08-12T08:58:55.092Z,977.11
2022-08-12T08:59:55.074Z,977.06
2022-08-12T09:00:55.062Z,977.11
2022-08-12T09:01:55.146Z,977.07
2022-08-12T09:02:58.674Z,977.14
2022-08-12T09:05:09.145Z,977.00
2022-08-12T09:05:12.985Z,977.02
2022-08-12T09:06:02.954Z,976.94
2022-08-12T09:06:56.032Z,977.02
2022-08-12T09:08:09.025Z,976.99
2022-08-12T09:08:54.970Z,977.02
2022-08-12T09:10:03.656Z,976.94
2022-08-12T09:12:10.958Z,976.96
2022-08-12T09:12:55.774Z,977.03
2022-08-12T09:14:11.449Z,976.98
2022-08-12T09:14:54.901Z,976.99
2022-08-12T09:15:57.565Z,976.99
2022-08-12T09:16:54.875Z,977.02
2022-08-12T09:17:55.070Z,976.94
2022-08-12T09:18:54.859Z,977.07
2022-08-12T09:19:58.323Z,977.07
2022-08-12T09:20:54.836Z,977.02
2022-08-12T09:21:55.471Z,976.99
2022-08-12T09:22:55.000Z,976.95
2022-08-12T09:23:58.906Z,976.96
2022-08-12T09:24:54.793Z,976.93
2022-08-12T09:25:54.778Z,976.89
2022-08-12T09:26:54.778Z,976.92
2022-08-12T09:28:03.427Z,976.92
2022-08-12T09:28:54.745Z,976.84
2022-08-12T09:30:11.013Z,976.86
2022-08-12T09:30:57.300Z,976.88
2022-08-12T09:32:04.089Z,976.92
2022-08-12T09:33:05.178Z,976.92
2022-08-12T09:34:29.259Z,976.85
2022-08-12T09:34:54.683Z,976.90
2022-08-12T09:36:03.216Z,976.93
2022-08-12T09:37:01.126Z,976.85
2022-08-12T09:37:58.823Z,976.81
2022-08-12T09:38:59.173Z,976.91
2022-08-12T09:40:04.395Z,976.92
2022-08-12T09:42:07.175Z,976.86
2022-08-12T09:42:32.893Z,976.74
2022-08-12T09:43:15.254Z,976.69
2022-08-12T09:44:01.288Z,976.69
2022-08-12T09:45:18.009Z,976.71
2022-08-12T09:46:20.625Z,976.65
2022-08-12T09:46:55.941Z,976.67
2022-08-12T09:47:59.926Z,976.57
2022-08-12T09:48:56.296Z,976.58
2022-08-12T09:49:57.867Z,976.50
2022-08-12T09:50:55.548Z,976.50
2022-08-12T09:51:54.490Z,976.47
2022-08-12T09:52:56.802Z,976.47
2022-08-12T09:54:09.134Z,976.47
2022-08-12T09:54:59.786Z,976.49
2022-08-12T09:56:06.300Z,976.52
2022-08-12T09:57:00.513Z,976.58
2022-08-12T09:58:45.562Z,976.58
2022-08-12T09:59:00.062Z,976.56
2022-08-12T10:00:12.952Z,976.54
2022-08-12T10:00:54.518Z,976.57
2022-08-12T10:02:45.959Z,976.50
2022-08-12T10:02:54.876Z,976.53
2022-08-12T10:04:03.494Z,976.53
2022-08-12T10:04:54.402Z,976.50
2022-08-12T10:06:26.325Z,976.41
2022-08-12T10:06:57.628Z,976.47
2022-08-12T10:07:54.312Z,976.43
2022-08-12T10:08:54.300Z,976.40
2022-08-12T10:09:58.845Z,976.38
2022-08-12T10:10:54.272Z,976.40
2022-08-12T10:12:10.047Z,976.38
2022-08-12T10:13:06.620Z,976.40
2022-08-12T10:13:55.275Z,976.31
2022-08-12T10:14:55.107Z,976.33
2022-08-12T10:16:02.952Z,976.38
2022-08-12T10:16:55.245Z,976.36
2022-08-12T10:18:06.005Z,976.36
2022-08-12T10:18:54.195Z,976.39
2022-08-12T10:19:54.177Z,976.34
2022-08-12T10:20:54.167Z,976.31
2022-08-12T10:21:56.890Z,976.37
2022-08-12T10:22:54.417Z,976.39
2022-08-12T10:23:57.086Z,976.45
2022-08-12T10:24:54.135Z,976.42
2022-08-12T10:26:34.566Z,976.37
2022-08-12T10:26:54.094Z,976.33
2022-08-12T10:28:05.352Z,976.43
2022-08-12T10:29:02.954Z,976.36
2022-08-12T10:30:03.669Z,976.35
2022-08-12T10:30:58.447Z,976.43
2022-08-12T10:32:20.708Z,976.38
2022-08-12T10:32:56.276Z,976.40
2022-08-12T10:34:05.490Z,976.33
2022-08-12T10:34:56.908Z,976.38
2022-08-12T10:35:54.005Z,976.41
2022-08-12T10:36:53.986Z,976.31
2022-08-12T10:38:37.876Z,976.24
2022-08-12T10:38:56.512Z,976.35
2022-08-12T10:40:05.730Z,976.35
2022-08-12T10:40:55.020Z,976.42
2022-08-12T10:41:58.713Z,976.48
2022-08-12T10:42:53.915Z,976.38
2022-08-12T10:43:56.307Z,976.46
2022-08-12T10:44:53.892Z,976.44
2022-08-12T10:45:53.889Z,976.35
2022-08-12T10:46:53.870Z,976.45
2022-08-12T10:48:20.056Z,976.39
2022-08-12T10:48:55.863Z,976.42
2022-08-12T10:50:04.999Z,976.31
2022-08-12T10:51:02.612Z,976.53
2022-08-12T10:52:30.994Z,976.48
2022-08-12T10:52:54.832Z,976.31
2022-08-12T10:53:53.802Z,976.42
2022-08-12T10:54:53.783Z,976.43
2022-08-12T10:55:56.372Z,976.33
2022-08-12T10:56:53.760Z,976.39
2022-08-12T10:58:14.745Z,976.34
2022-08-12T10:58:54.762Z,976.32
2022-08-12T11:00:30.676Z,976.29
2022-08-12T11:00:55.236Z,976.25
2022-08-12T11:04:18.287Z,976.26
2022-08-12T11:04:23.739Z,976.35
2022-08-12T11:04:27.371Z,976.15
2022-08-12T11:04:55.371Z,976.24
2022-08-12T11:07:07.393Z,976.18
2022-08-12T11:07:09.932Z,976.15
2022-08-12T11:08:35.088Z,976.20
2022-08-12T11:08:54.764Z,976.16
2022-08-12T11:10:00.525Z,976.10
2022-08-12T11:10:53.606Z,976.10
2022-08-12T11:12:34.548Z,976.04
2022-08-12T11:12:58.461Z,976.18
2022-08-12T11:13:53.571Z,976.19
2022-08-12T11:14:53.564Z,976.09
2022-08-12T11:16:03.942Z,976.03
2022-08-12T11:17:43.049Z,976.04
2022-08-12T11:17:55.629Z,975.98
2022-08-12T11:18:55.181Z,976.03
2022-08-12T11:19:53.511Z,976.00
2022-08-12T11:20:53.497Z,975.95
2022-08-12T11:21:57.794Z,975.97
2022-08-12T11:22:58.941Z,976.07
2022-08-12T11:23:53.902Z,975.99
2022-08-12T11:24:53.788Z,976.01
2022-08-12T11:25:57.883Z,976.01
2022-08-12T11:26:53.487Z,976.00
2022-08-12T11:27:53.429Z,975.93
2022-08-12T11:28:59.230Z,975.91
2022-08-12T11:30:02.330Z,975.95
2022-08-12T11:30:53.698Z,975.85
2022-08-12T11:32:02.068Z,975.92
2022-08-12T11:32:53.374Z,976.08
2022-08-12T11:34:06.373Z,976.19
2022-08-12T11:34:55.304Z,976.26
2022-08-12T11:35:59.159Z,976.20
2022-08-12T11:36:53.634Z,976.34
2022-08-12T11:37:59.025Z,976.21
2022-08-12T11:38:53.271Z,976.23
2022-08-12T11:40:53.250Z,976.09
2022-08-12T11:41:53.660Z,976.09
2022-08-12T11:42:53.231Z,976.06
2022-08-12T11:43:58.501Z,976.16
2022-08-12T11:44:53.212Z,976.07
2022-08-12T11:45:56.763Z,975.99
2022-08-12T11:46:53.479Z,975.94
2022-08-12T11:47:54.858Z,975.94
2022-08-12T11:48:53.166Z,975.94
2022-08-12T11:49:53.154Z,975.89
2022-08-12T11:50:53.145Z,975.93
2022-08-12T11:51:57.503Z,975.93
2022-08-12T11:52:56.555Z,975.90
2022-08-12T11:53:57.338Z,976.01
2022-08-12T11:54:54.331Z,976.08
2022-08-12T11:55:53.088Z,976.04
2022-08-12T11:56:59.971Z,976.06
2022-08-12T11:58:39.366Z,976.13
2022-08-12T12:01:58.910Z,976.00
2022-08-12T12:02:01.717Z,975.97
2022-08-12T12:02:53.041Z,976.02
2022-08-12T12:03:54.769Z,976.11
2022-08-12T12:04:53.831Z,976.11
2022-08-12T12:05:52.983Z,976.06
2022-08-12T12:06:53.362Z,976.04
2022-08-12T12:08:38.047Z,976.12
2022-08-12T12:08:53.922Z,976.12
2022-08-12T12:09:53.865Z,976.09
2022-08-12T12:10:52.923Z,976.10
2022-08-12T12:11:52.915Z,975.95
2022-08-12T12:12:52.900Z,975.85
2022-08-12T12:14:07.372Z,975.83
2022-08-12T12:14:54.603Z,975.91
2022-08-12T12:15:53.184Z,975.89
2022-08-12T12:16:52.872Z,975.94
2022-08-12T12:17:55.911Z,975.94
2022-08-12T12:18:52.842Z,975.86
2022-08-12T12:19:52.838Z,975.80
2022-08-12T12:20:52.820Z,975.84
2022-08-12T12:21:52.812Z,975.81
2022-08-12T12:22:52.797Z,975.74
2022-08-12T12:23:52.785Z,975.76
2022-08-12T12:24:53.970Z,975.79
2022-08-12T12:26:06.894Z,975.82
2022-08-12T12:27:00.277Z,975.89
2022-08-12T12:28:04.185Z,975.75
2022-08-12T12:28:54.431Z,975.79
2022-08-12T12:30:18.139Z,975.73
2022-08-12T12:30:54.675Z,975.78
2022-08-12T12:32:10.959Z,975.79